Time;durP1;ratioP1;P1;durP2;ratioP2;P2;SDS_P1;SDS_P2;PMS_P1;PMS_P2;Temp;Humidity;BMP_temperature;BMP_pressure;BME280_temperature;BME280_humidity;BME280_pressure;Samples;Min_cycle;Max_cycle;Signal;HPM_P1;HPM_P2
2022/01/23 00:01:54;;;;;;;1.05;0.35;;;;;;;;;;5055069;28;20025;-64
2022/01/23 00:04:20;;;;;;;0.10;0.10;;;;;;;;;;5054182;28;20116;-63
2022/01/23 00:06:46;;;;;;;1.05;0.20;;;;;;;;;;5054433;28;20053;-64
2022/01/23 00:09:14;;;;;;;0.30;0.10;;;;;;;;;;5054343;28;20017;-63
2022/01/23 00:11:46;;;;;;;0.63;0.20;;;;;;;;;;5054430;28;20036;-64
2022/01/23 00:19:39;;;;;;;0.50;0.20;;;;;;;;;;5054297;28;20024;-64
2022/01/23 00:22:04;;;;;;;0.40;0.30;;;;;;;;;;5054647;28;20029;-63
2022/01/23 00:32:41;;;;;;;0.30;0.22;;;;;;;;;;5054363;28;20109;-64
2022/01/23 00:35:06;;;;;;;0.43;0.40;;;;;;;;;;5054024;28;20108;-63
2022/01/23 00:37:31;;;;;;;0.43;0.20;;;;;;;;;;5053790;28;20250;-64
2022/01/23 00:39:57;;;;;;;0.98;0.25;;;;;;;;;;5052757;28;20013;-63
2022/01/23 00:42:22;;;;;;;0.20;0.20;;;;;;;;;;5053683;28;20040;-64
2022/01/23 00:44:53;;;;;;;0.20;0.20;;;;;;;;;;5054189;28;20017;-63
2022/01/23 00:47:19;;;;;;;0.50;0.20;;;;;;;;;;5053633;28;20027;-63
2022/01/23 00:49:44;;;;;;;0.40;0.35;;;;;;;;;;5053716;28;20095;-64
2022/01/23 00:52:09;;;;;;;0.80;0.30;;;;;;;;;;5053719;28;20024;-63
2022/01/23 00:54:34;;;;;;;0.63;0.30;;;;;;;;;;5053771;28;20479;-64
2022/01/23 00:57:00;;;;;;;0.50;0.17;;;;;;;;;;5054025;28;20246;-63
2022/01/23 00:59:25;;;;;;;1.30;0.40;;;;;;;;;;5053296;28;20261;-63
2022/01/23 01:01:50;;;;;;;0.93;0.20;;;;;;;;;;5053652;28;20107;-63
2022/01/23 01:04:15;;;;;;;0.50;0.22;;;;;;;;;;5053141;28;20024;-64
2022/01/23 01:06:40;;;;;;;1.40;0.45;;;;;;;;;;5053497;28;20029;-63
2022/01/23 01:09:08;;;;;;;0.50;0.30;;;;;;;;;;5053353;28;20514;-63
2022/01/23 01:30:26;;;;;;;1.92;0.73;;;;;;;;;;5052923;28;20380;-63
2022/01/23 01:33:11;;;;;;;0.30;0.28;;;;;;;;;;5052965;28;20024;-63
2022/01/23 01:35:54;;;;;;;0.65;0.13;;;;;;;;;;5052794;28;20017;-63
2022/01/23 01:38:19;;;;;;;0.52;0.40;;;;;;;;;;5052678;28;20025;-64
2022/01/23 01:40:45;;;;;;;0.50;0.30;;;;;;;;;;5052711;28;20032;-63
2022/01/23 01:43:10;;;;;;;0.57;0.13;;;;;;;;;;5052660;28;20025;-64
2022/01/23 01:45:36;;;;;;;0.98;0.38;;;;;;;;;;5052539;28;20027;-63
2022/01/23 01:48:02;;;;;;;0.90;0.40;;;;;;;;;;5052691;28;20017;-64
2022/01/23 01:50:29;;;;;;;0.45;0.30;;;;;;;;;;5052456;28;20071;-63
2022/01/23 01:52:54;;;;;;;1.40;0.40;;;;;;;;;;5052573;28;20017;-63
2022/01/23 01:55:26;;;;;;;0.40;0.30;;;;;;;;;;5052226;28;20062;-64
2022/01/23 01:57:54;;;;;;;0.55;0.30;;;;;;;;;;5052595;28;20021;-63
2022/01/23 02:00:38;;;;;;;0.57;0.30;;;;;;;;;;5052381;28;20035;-64
2022/01/23 02:08:23;;;;;;;;;;;;;;;;;;5052641;28;20321;-64
2022/01/23 02:10:51;;;;;;;0.20;0.20;;;;;;;;;;5052370;28;19992;-63
2022/01/23 02:13:21;;;;;;;0.90;0.32;;;;;;;;;;5052212;28;20495;-64
2022/01/23 02:18:25;;;;;;;1.00;0.30;;;;;;;;;;5052078;28;20071;-64
2022/01/23 02:51:46;;;;;;;0.10;0.08;;;;;;;;;;4990474;28;20125;-63
2022/01/23 02:56:44;;;;;;;0.75;0.47;;;;;;;;;;4990240;28;20022;-64
2022/01/23 02:59:21;;;;;;;0.77;0.30;;;;;;;;;;4990161;28;20085;-63
2022/01/23 03:02:00;;;;;;;0.63;0.20;;;;;;;;;;5009505;28;20026;-64
2022/01/23 03:04:26;;;;;;;1.73;0.13;;;;;;;;;;5009425;28;20125;-64
2022/01/23 03:14:38;;;;;;;0.50;0.20;;;;;;;;;;5051727;28;20455;-63
2022/01/23 03:25:44;;;;;;;1.77;0.30;;;;;;;;;;5051539;28;20499;-63
2022/01/23 03:33:19;;;;;;;0.30;0.30;;;;;;;;;;5055349;28;20025;-63
2022/01/23 03:35:44;;;;;;;0.80;0.20;;;;;;;;;;5055160;28;20020;-64
2022/01/23 03:38:09;;;;;;;0.10;0.10;;;;;;;;;;5054996;28;20381;-63
2022/01/23 03:40:35;;;;;;;0.22;0.13;;;;;;;;;;5055072;28;20021;-64
2022/01/23 03:43:09;;;;;;;0.35;0.20;;;;;;;;;;5055050;28;20468;-63
2022/01/23 03:50:50;;;;;;;0.20;0.20;;;;;;;;;;5055157;28;19909;-63
2022/01/23 03:53:15;;;;;;;1.20;0.37;;;;;;;;;;5054780;28;20031;-64
2022/01/23 03:55:40;;;;;;;0.40;0.15;;;;;;;;;;5054722;28;20721;-63
2022/01/23 03:58:06;;;;;;;1.17;0.22;;;;;;;;;;5054807;28;20067;-64
2022/01/23 04:00:31;;;;;;;0.90;0.30;;;;;;;;;;5054578;28;20475;-63
2022/01/23 04:02:56;;;;;;;0.40;0.30;;;;;;;;;;5054722;28;20025;-63
2022/01/23 04:05:22;;;;;;;0.22;0.10;;;;;;;;;;5054001;28;20584;-64
2022/01/23 04:07:47;;;;;;;1.10;0.17;;;;;;;;;;5054587;28;20075;-63
2022/01/23 04:10:14;;;;;;;0.20;0.00;;;;;;;;;;5054438;28;20503;-64
2022/01/23 04:12:48;;;;;;;0.45;0.38;;;;;;;;;;5054437;28;20269;-63
2022/01/23 04:33:51;;;;;;;1.38;0.40;;;;;;;;;;5054087;28;20147;-63
2022/01/23 04:48:33;;;;;;;0.82;0.35;;;;;;;;;;5033748;28;20076;-63
2022/01/23 05:01:30;;;;;;;0.55;0.30;;;;;;;;;;5011454;28;20065;-63
2022/01/23 05:04:16;;;;;;;0.30;0.20;;;;;;;;;;5011399;28;20060;-63
2022/01/23 05:06:42;;;;;;;2.17;0.45;;;;;;;;;;5011224;28;20042;-64
2022/01/23 05:09:09;;;;;;;0.30;0.20;;;;;;;;;;5011194;28;20061;-63
2022/01/23 05:11:35;;;;;;;0.40;0.20;;;;;;;;;;5011244;28;20097;-64
2022/01/23 05:14:02;;;;;;;0.77;0.17;;;;;;;;;;5011268;28;20033;-64
2022/01/23 05:16:27;;;;;;;1.08;0.38;;;;;;;;;;5011014;28;20068;-63
2022/01/23 05:18:53;;;;;;;0.57;0.30;;;;;;;;;;5011118;28;20049;-64
2022/01/23 05:24:04;;;;;;;0.85;0.15;;;;;;;;;;5011169;28;20076;-64
2022/01/23 05:26:29;;;;;;;0.52;0.20;;;;;;;;;;5010830;28;20040;-64
2022/01/23 05:28:54;;;;;;;0.68;0.40;;;;;;;;;;5025055;28;20037;-64
2022/01/23 05:31:20;;;;;;;0.20;0.20;;;;;;;;;;5032952;28;20041;-64
2022/01/23 05:33:45;;;;;;;1.10;0.45;;;;;;;;;;5033064;28;20085;-64
2022/01/23 05:36:10;;;;;;;1.33;0.50;;;;;;;;;;5032925;28;20040;-64
2022/01/23 05:38:35;;;;;;;0.40;0.40;;;;;;;;;;5032808;28;20334;-63
2022/01/23 05:41:01;;;;;;;0.35;0.30;;;;;;;;;;5033017;28;20037;-64
2022/01/23 05:43:26;;;;;;;0.63;0.20;;;;;;;;;;5045267;28;20017;-63
2022/01/23 05:45:52;;;;;;;0.20;0.20;;;;;;;;;;5052794;28;20031;-64
2022/01/23 05:48:17;;;;;;;0.85;0.30;;;;;;;;;;5052512;28;20013;-63
2022/01/23 05:50:43;;;;;;;1.75;0.45;;;;;;;;;;5052584;28;20412;-64
2022/01/23 05:53:08;;;;;;;0.77;0.45;;;;;;;;;;5052345;28;20025;-64
2022/01/23 05:55:33;;;;;;;0.50;0.10;;;;;;;;;;5051979;28;20441;-63
2022/01/23 05:57:58;;;;;;;0.43;0.15;;;;;;;;;;5052647;28;20251;-63
2022/01/23 06:00:23;;;;;;;0.40;0.20;;;;;;;;;;5052349;28;20497;-63
2022/01/23 06:02:49;;;;;;;0.27;0.10;;;;;;;;;;5051264;28;20056;-64
2022/01/23 06:05:14;;;;;;;0.50;0.30;;;;;;;;;;5052121;28;20266;-63
2022/01/23 06:07:40;;;;;;;0.20;0.20;;;;;;;;;;5052323;28;20372;-64
2022/01/23 06:10:06;;;;;;;0.80;0.20;;;;;;;;;;5052410;28;20535;-64
2022/01/23 06:12:31;;;;;;;0.30;0.22;;;;;;;;;;5052171;28;20100;-64
2022/01/23 06:14:57;;;;;;;0.60;0.20;;;;;;;;;;5052408;28;20063;-64
2022/01/23 06:17:22;;;;;;;0.20;0.20;;;;;;;;;;5052086;28;20262;-63
2022/01/23 06:19:47;;;;;;;0.63;0.30;;;;;;;;;;5052376;28;20086;-64
2022/01/23 06:22:14;;;;;;;0.40;0.40;;;;;;;;;;5052199;28;20376;-63
2022/01/23 06:24:47;;;;;;;0.22;0.22;;;;;;;;;;5052484;28;20262;-64
2022/01/23 06:27:12;;;;;;;0.63;0.30;;;;;;;;;;5052057;28;20013;-63
2022/01/23 06:29:38;;;;;;;0.68;0.20;;;;;;;;;;5052133;28;20025;-64
2022/01/23 06:32:04;;;;;;;0.30;0.22;;;;;;;;;;5052285;28;20048;-63
2022/01/23 06:34:29;;;;;;;0.80;0.32;;;;;;;;;;5052016;28;20100;-63
2022/01/23 06:36:55;;;;;;;0.52;0.40;;;;;;;;;;5052171;28;20463;-64
2022/01/23 06:39:21;;;;;;;0.93;0.45;;;;;;;;;;5051889;28;20052;-64
2022/01/23 06:41:46;;;;;;;1.73;0.30;;;;;;;;;;5052175;28;20025;-64
2022/01/23 06:44:11;;;;;;;0.28;0.28;;;;;;;;;;5052162;28;20017;-63
2022/01/23 06:46:39;;;;;;;0.40;0.30;;;;;;;;;;5051984;28;20529;-64
2022/01/23 06:49:05;;;;;;;0.32;0.10;;;;;;;;;;5052004;28;20013;-64
2022/01/23 06:51:30;;;;;;;0.47;0.20;;;;;;;;;;5051861;28;20375;-64
2022/01/23 06:53:55;;;;;;;1.00;0.60;;;;;;;;;;5051810;28;20067;-64
2022/01/23 06:56:20;;;;;;;0.50;0.30;;;;;;;;;;5050540;28;20095;-63
2022/01/23 06:58:46;;;;;;;0.95;0.30;;;;;;;;;;5052217;28;20062;-64
2022/01/23 07:01:11;;;;;;;2.35;0.20;;;;;;;;;;5051779;28;20067;-63
2022/01/23 07:03:36;;;;;;;0.60;0.40;;;;;;;;;;5051813;28;20020;-64
2022/01/23 07:06:02;;;;;;;0.40;0.30;;;;;;;;;;5053907;28;20645;-63
2022/01/23 07:08:27;;;;;;;1.45;0.30;;;;;;;;;;5055428;28;20112;-64
2022/01/23 07:10:52;;;;;;;0.50;0.30;;;;;;;;;;5055624;28;20557;-64
2022/01/23 07:13:18;;;;;;;0.40;0.20;;;;;;;;;;5055570;28;20032;-63
2022/01/23 07:15:43;;;;;;;0.43;0.20;;;;;;;;;;5055552;28;20025;-64
2022/01/23 07:18:08;;;;;;;0.90;0.30;;;;;;;;;;5055490;28;20414;-63
2022/01/23 07:20:33;;;;;;;1.33;0.40;;;;;;;;;;5055400;28;20037;-64
2022/01/23 07:22:58;;;;;;;0.80;0.10;;;;;;;;;;5055846;28;20039;-63
2022/01/23 07:25:24;;;;;;;0.25;0.20;;;;;;;;;;5055182;28;20242;-64
2022/01/23 07:27:53;;;;;;;0.30;0.30;;;;;;;;;;5055311;28;20029;-64
2022/01/23 07:33:02;;;;;;;1.70;0.40;;;;;;;;;;5055334;28;20048;-64
2022/01/23 07:35:27;;;;;;;0.52;0.30;;;;;;;;;;5055027;28;20457;-63
2022/01/23 07:37:53;;;;;;;0.70;0.30;;;;;;;;;;5055206;28;20049;-64
2022/01/23 07:40:19;;;;;;;0.75;0.45;;;;;;;;;;5055051;28;20033;-63
2022/01/23 07:42:44;;;;;;;0.40;0.40;;;;;;;;;;5054923;28;20017;-64
2022/01/23 07:45:09;;;;;;;0.43;0.43;;;;;;;;;;5054922;28;20086;-63
2022/01/23 07:47:34;;;;;;;0.43;0.20;;;;;;;;;;5054778;28;20269;-63
2022/01/23 07:50:01;;;;;;;0.30;0.20;;;;;;;;;;5055032;28;20095;-64
2022/01/23 07:52:30;;;;;;;0.68;0.20;;;;;;;;;;5053470;28;20112;-63
2022/01/23 07:54:55;;;;;;;0.90;0.20;;;;;;;;;;5054823;28;20384;-64
2022/01/23 07:57:20;;;;;;;0.45;0.13;;;;;;;;;;5054622;28;20021;-64
2022/01/23 07:59:45;;;;;;;0.73;0.20;;;;;;;;;;5054760;28;20472;-64
2022/01/23 08:02:11;;;;;;;1.40;0.60;;;;;;;;;;5054637;28;20250;-64
2022/01/23 08:04:36;;;;;;;0.22;0.22;;;;;;;;;;5054218;28;20067;-64
2022/01/23 08:07:20;;;;;;;0.47;0.43;;;;;;;;;;5054634;28;20045;-64
2022/01/23 08:09:45;;;;;;;0.40;0.30;;;;;;;;;;5054589;28;20020;-63
2022/01/23 08:12:10;;;;;;;0.40;0.40;;;;;;;;;;5054473;28;20024;-64
2022/01/23 08:14:35;;;;;;;0.93;0.47;;;;;;;;;;5054609;28;20242;-63
2022/01/23 08:17:01;;;;;;;0.73;0.20;;;;;;;;;;5053830;28;20040;-64
2022/01/23 08:19:26;;;;;;;0.68;0.20;;;;;;;;;;5054097;28;20029;-63
2022/01/23 08:21:51;;;;;;;0.83;0.40;;;;;;;;;;5054451;28;20024;-64
2022/01/23 08:24:16;;;;;;;0.27;0.20;;;;;;;;;;5054139;28;20405;-64
2022/01/23 08:26:41;;;;;;;0.93;0.43;;;;;;;;;;5054172;28;20242;-63
2022/01/23 08:29:07;;;;;;;0.88;0.43;;;;;;;;;;5054171;28;20281;-64
2022/01/23 08:31:33;;;;;;;0.68;0.47;;;;;;;;;;5053986;28;20087;-63
2022/01/23 08:33:58;;;;;;;0.52;0.28;;;;;;;;;;5054288;28;20021;-64
2022/01/23 08:36:23;;;;;;;0.40;0.40;;;;;;;;;;5053878;28;20025;-64
2022/01/23 08:38:48;;;;;;;0.53;0.40;;;;;;;;;;5054068;28;20040;-64
2022/01/23 08:43:57;;;;;;;0.40;0.40;;;;;;;;;;5054030;28;20055;-63
2022/01/23 08:46:23;;;;;;;1.00;0.40;;;;;;;;;;5053758;28;20033;-64
2022/01/23 08:48:48;;;;;;;0.90;0.40;;;;;;;;;;5053844;28;20452;-63
2022/01/23 08:51:13;;;;;;;0.50;0.20;;;;;;;;;;5053905;28;20020;-64
2022/01/23 08:53:38;;;;;;;0.13;0.10;;;;;;;;;;5054212;28;20031;-63
2022/01/23 08:56:04;;;;;;;1.05;0.40;;;;;;;;;;5053808;28;20513;-64
2022/01/23 08:58:30;;;;;;;0.88;0.40;;;;;;;;;;5053784;28;20017;-64
2022/01/23 09:00:55;;;;;;;1.08;0.57;;;;;;;;;;5053624;28;20021;-64
2022/01/23 09:03:20;;;;;;;1.02;0.45;;;;;;;;;;5053350;28;20025;-64
2022/01/23 09:05:45;;;;;;;0.87;0.30;;;;;;;;;;5053713;28;20392;-63
2022/01/23 09:08:10;;;;;;;0.68;0.35;;;;;;;;;;5053255;28;20284;-64
2022/01/23 09:10:52;;;;;;;1.43;0.30;;;;;;;;;;5053347;28;20021;-63
2022/01/23 09:16:03;;;;;;;0.40;0.40;;;;;;;;;;5050756;28;20029;-64
2022/01/23 09:18:28;;;;;;;1.20;0.65;;;;;;;;;;5050601;28;20051;-63
2022/01/23 09:20:53;;;;;;;0.40;0.25;;;;;;;;;;5050706;28;20072;-64
2022/01/23 09:23:19;;;;;;;0.53;0.23;;;;;;;;;;5050622;28;20163;-63
2022/01/23 09:25:44;;;;;;;0.60;0.22;;;;;;;;;;5050649;28;20737;-64
2022/01/23 09:28:13;;;;;;;0.45;0.30;;;;;;;;;;5050482;28;20033;-63
2022/01/23 09:30:43;;;;;;;0.90;0.30;;;;;;;;;;5050499;28;20023;-64
2022/01/23 09:33:09;;;;;;;1.60;0.50;;;;;;;;;;5050455;28;20041;-64
2022/01/23 09:35:34;;;;;;;0.25;0.17;;;;;;;;;;5050407;28;20047;-64
2022/01/23 09:37:59;;;;;;;0.67;0.30;;;;;;;;;;5050541;28;20033;-64
2022/01/23 09:40:24;;;;;;;0.65;0.32;;;;;;;;;;5050184;28;20270;-63
2022/01/23 09:42:52;;;;;;;0.40;0.20;;;;;;;;;;5050373;28;20096;-64
2022/01/23 09:45:18;;;;;;;0.55;0.40;;;;;;;;;;5050240;28;20025;-63
2022/01/23 09:47:43;;;;;;;0.73;0.20;;;;;;;;;;5050186;28;20032;-64
2022/01/23 09:50:10;;;;;;;0.52;0.28;;;;;;;;;;5050227;28;20459;-63
2022/01/23 09:52:37;;;;;;;0.47;0.40;;;;;;;;;;5050759;28;20061;-64
2022/01/23 09:55:11;;;;;;;1.25;0.22;;;;;;;;;;5052677;28;20108;-64
2022/01/23 09:57:38;;;;;;;2.15;0.30;;;;;;;;;;5052784;28;20055;-63
2022/01/23 10:00:05;;;;;;;1.58;0.30;;;;;;;;;;5052631;28;20020;-64
2022/01/23 10:02:30;;;;;;;0.35;0.20;;;;;;;;;;5052167;28;20068;-63
2022/01/23 10:04:55;;;;;;;1.73;0.43;;;;;;;;;;5052312;28;20542;-64
2022/01/23 10:07:21;;;;;;;1.37;0.57;;;;;;;;;;5052149;28;20479;-64
2022/01/23 10:09:53;;;;;;;0.20;0.20;;;;;;;;;;5052479;28;20278;-64
2022/01/23 10:12:19;;;;;;;1.75;0.40;;;;;;;;;;5052254;28;20456;-64
2022/01/23 10:14:44;;;;;;;0.73;0.40;;;;;;;;;;5052363;28;20063;-63
2022/01/23 10:17:09;;;;;;;1.42;0.38;;;;;;;;;;5052276;28;20399;-64
2022/01/23 10:19:35;;;;;;;0.45;0.38;;;;;;;;;;5052513;28;20013;-63
2022/01/23 10:22:02;;;;;;;0.95;0.30;;;;;;;;;;5052352;28;20032;-64
2022/01/23 10:24:28;;;;;;;1.13;0.40;;;;;;;;;;5052117;28;20469;-63
2022/01/23 10:26:56;;;;;;;1.13;0.38;;;;;;;;;;5052147;28;20031;-64
2022/01/23 10:29:34;;;;;;;1.42;0.50;;;;;;;;;;5051965;28;20372;-63
2022/01/23 10:32:08;;;;;;;2.30;0.50;;;;;;;;;;5052349;28;20025;-63
2022/01/23 10:34:33;;;;;;;;;;;;;;;;;;5052434;28;20017;-64
2022/01/23 10:36:58;;;;;;;1.42;0.50;;;;;;;;;;5052234;28;20402;-63
2022/01/23 10:39:38;;;;;;;0.60;0.30;;;;;;;;;;5051855;28;20048;-64
2022/01/23 10:42:25;;;;;;;0.50;0.45;;;;;;;;;;5056123;28;20028;-64
2022/01/23 10:47:47;;;;;;;0.30;0.25;;;;;;;;;;5056185;28;20020;-64
2022/01/23 10:50:12;;;;;;;1.85;0.57;;;;;;;;;;5055957;28;20017;-63
2022/01/23 10:52:39;;;;;;;0.65;0.30;;;;;;;;;;5056583;28;20068;-64
2022/01/23 10:55:21;;;;;;;0.43;0.35;;;;;;;;;;5056045;28;20017;-64
2022/01/23 10:57:48;;;;;;;0.70;0.30;;;;;;;;;;5056372;28;20025;-63
2022/01/23 11:00:25;;;;;;;1.30;0.20;;;;;;;;;;5055748;28;20017;-64
2022/01/23 11:02:51;;;;;;;0.77;0.40;;;;;;;;;;5055889;28;20025;-63
2022/01/23 11:05:18;;;;;;;0.47;0.17;;;;;;;;;;5055799;28;20052;-64
2022/01/23 11:07:44;;;;;;;1.75;0.25;;;;;;;;;;5054314;28;20033;-63
2022/01/23 11:10:11;;;;;;;1.02;0.40;;;;;;;;;;5055602;28;20099;-64
2022/01/23 11:18:10;;;;;;;0.25;0.20;;;;;;;;;;5055770;28;20498;-64
2022/01/23 11:20:43;;;;;;;0.68;0.30;;;;;;;;;;5055456;28;20044;-63
2022/01/23 11:23:16;;;;;;;0.85;0.20;;;;;;;;;;5055498;28;20507;-63
2022/01/23 11:26:04;;;;;;;0.43;0.20;;;;;;;;;;5055424;28;20539;-64
2022/01/23 11:28:38;;;;;;;1.05;0.45;;;;;;;;;;5055105;28;20384;-63
2022/01/23 11:31:05;;;;;;;1.30;0.30;;;;;;;;;;5055358;28;20013;-64
2022/01/23 11:33:30;;;;;;;0.45;0.20;;;;;;;;;;5055079;28;20483;-64
2022/01/23 11:35:55;;;;;;;0.38;0.38;;;;;;;;;;5055383;28;20071;-64
2022/01/23 11:38:22;;;;;;;1.50;0.40;;;;;;;;;;5055036;28;20029;-64
2022/01/23 11:54:57;;;;;;;0.85;0.30;;;;;;;;;;5054526;28;20443;-63
2022/01/23 11:57:35;;;;;;;0.20;0.20;;;;;;;;;;5054179;28;20116;-64
2022/01/23 12:00:04;;;;;;;0.32;0.32;;;;;;;;;;5053575;28;20017;-64
2022/01/23 12:02:36;;;;;;;0.38;0.20;;;;;;;;;;5054661;28;20095;-63
2022/01/23 12:05:10;;;;;;;0.73;0.28;;;;;;;;;;5054578;28;20044;-64
2022/01/23 12:07:36;;;;;;;0.10;0.10;;;;;;;;;;5054737;28;20017;-63
2022/01/23 12:10:24;;;;;;;0.60;0.30;;;;;;;;;;5054697;28;20096;-64
2022/01/23 12:13:10;;;;;;;0.52;0.28;;;;;;;;;;5054594;28;20408;-64
2022/01/23 12:18:28;;;;;;;0.77;0.30;;;;;;;;;;5054339;28;20032;-64
2022/01/23 12:20:54;;;;;;;0.90;0.20;;;;;;;;;;5054412;28;20039;-64
2022/01/23 12:23:19;;;;;;;0.25;0.25;;;;;;;;;;5054297;28;20108;-64
2022/01/23 12:25:55;;;;;;;1.05;0.40;;;;;;;;;;5054234;28;20457;-63
2022/01/23 12:28:32;;;;;;;0.40;0.05;;;;;;;;;;5054119;28;20068;-63
2022/01/23 12:30:59;;;;;;;0.57;0.28;;;;;;;;;;5054235;28;20017;-64
2022/01/23 12:33:47;;;;;;;0.40;0.30;;;;;;;;;;5053952;28;20021;-63
2022/01/23 12:36:12;;;;;;;0.45;0.20;;;;;;;;;;5048283;28;20033;-64
2022/01/23 12:38:39;;;;;;;0.75;0.15;;;;;;;;;;5054255;28;20048;-64
2022/01/23 12:41:24;;;;;;;0.30;0.20;;;;;;;;;;5054178;28;20013;-63
2022/01/23 12:43:53;;;;;;;0.93;0.40;;;;;;;;;;5053996;28;20025;-64
2022/01/23 12:46:22;;;;;;;0.88;0.30;;;;;;;;;;5053861;28;20114;-63
2022/01/23 12:48:49;;;;;;;0.22;0.20;;;;;;;;;;5053787;28;20021;-64
2022/01/23 12:51:17;;;;;;;0.88;0.25;;;;;;;;;;5053728;28;20479;-63
2022/01/23 12:53:45;;;;;;;1.05;0.30;;;;;;;;;;5053679;28;20028;-63
2022/01/23 12:56:12;;;;;;;0.40;0.22;;;;;;;;;;5053702;28;20035;-64
2022/01/23 12:58:38;;;;;;;0.40;0.20;;;;;;;;;;5053520;28;20021;-63
2022/01/23 13:01:05;;;;;;;0.32;0.20;;;;;;;;;;5053701;28;20095;-64
2022/01/23 13:03:30;;;;;;;1.00;0.30;;;;;;;;;;5053087;28;20056;-63
2022/01/23 13:05:55;;;;;;;0.20;0.20;;;;;;;;;;5053494;28;20065;-64
2022/01/23 13:08:25;;;;;;;0.57;0.40;;;;;;;;;;5053618;28;20617;-63
2022/01/23 13:13:53;;;;;;;0.30;0.20;;;;;;;;;;5030883;28;20049;-64
2022/01/23 13:16:30;;;;;;;0.73;0.30;;;;;;;;;;5030958;28;20021;-63
2022/01/23 13:30:33;;;;;;;0.28;0.22;;;;;;;;;;5030845;28;20124;-64
2022/01/23 13:33:02;;;;;;;0.68;0.30;;;;;;;;;;5030728;28;20048;-63
2022/01/23 13:35:33;;;;;;;0.60;0.40;;;;;;;;;;5030400;28;20021;-64
2022/01/23 13:38:00;;;;;;;1.23;0.30;;;;;;;;;;5030678;28;20500;-63
2022/01/23 13:40:34;;;;;;;0.35;0.30;;;;;;;;;;5030342;28;20116;-64
2022/01/23 13:59:40;;;;;;;0.32;0.30;;;;;;;;;;4990783;28;20037;-63
2022/01/23 14:02:15;;;;;;;0.30;0.30;;;;;;;;;;4974399;28;20105;-64
2022/01/23 14:04:42;;;;;;;3.42;0.70;;;;;;;;;;4990630;28;20061;-64
2022/01/23 14:07:07;;;;;;;0.50;0.20;;;;;;;;;;4990642;28;20034;-63
2022/01/23 14:09:36;;;;;;;0.55;0.30;;;;;;;;;;4990501;28;20026;-64
2022/01/23 14:12:06;;;;;;;0.75;0.20;;;;;;;;;;4990797;28;20382;-63
2022/01/23 14:14:31;;;;;;;0.63;0.15;;;;;;;;;;4990066;28;20023;-64
2022/01/23 14:17:09;;;;;;;1.45;0.32;;;;;;;;;;4990638;28;20042;-64
2022/01/23 14:19:35;;;;;;;0.38;0.20;;;;;;;;;;5023348;28;20175;-64
2022/01/23 14:22:00;;;;;;;0.40;0.23;;;;;;;;;;5052454;28;20143;-63
2022/01/23 14:24:31;;;;;;;1.35;0.28;;;;;;;;;;5051285;28;20021;-63
2022/01/23 14:27:07;;;;;;;0.40;0.20;;;;;;;;;;5052272;28;20025;-64
2022/01/23 14:29:45;;;;;;;1.10;0.30;;;;;;;;;;5052065;28;20017;-63
2022/01/23 14:32:16;;;;;;;0.85;0.20;;;;;;;;;;5052151;28;20017;-64
2022/01/23 14:34:41;;;;;;;0.32;0.28;;;;;;;;;;5052100;28;20419;-63
2022/01/23 14:37:07;;;;;;;1.38;0.40;;;;;;;;;;5052190;28;20021;-63
2022/01/23 14:39:33;;;;;;;1.00;0.30;;;;;;;;;;5051977;28;20017;-64
2022/01/23 14:42:08;;;;;;;0.60;0.40;;;;;;;;;;5050839;28;20021;-63
2022/01/23 14:44:35;;;;;;;0.43;0.20;;;;;;;;;;5051959;28;20332;-64
2022/01/23 14:47:00;;;;;;;1.02;0.63;;;;;;;;;;5052258;28;20100;-64
2022/01/23 14:49:27;;;;;;;0.63;0.30;;;;;;;;;;5051671;28;20116;-64
2022/01/23 14:51:54;;;;;;;0.32;0.32;;;;;;;;;;5052116;28;20021;-64
2022/01/23 14:54:20;;;;;;;0.10;0.10;;;;;;;;;;5051891;28;20058;-63
2022/01/23 14:56:45;;;;;;;0.55;0.30;;;;;;;;;;5052006;28;20053;-64
2022/01/23 14:59:11;;;;;;;0.98;0.30;;;;;;;;;;5050545;28;20031;-63
2022/01/23 15:01:36;;;;;;;0.85;0.40;;;;;;;;;;5051724;28;20340;-64
2022/01/23 15:04:05;;;;;;;0.20;0.10;;;;;;;;;;5051980;28;20017;-63
2022/01/23 15:06:31;;;;;;;0.45;0.35;;;;;;;;;;5051549;28;20084;-64
2022/01/23 15:09:03;;;;;;;0.38;0.20;;;;;;;;;;5051738;28;20435;-64
2022/01/23 15:11:28;;;;;;;1.33;0.15;;;;;;;;;;5051596;28;20028;-63
2022/01/23 15:13:54;;;;;;;0.40;0.20;;;;;;;;;;5051914;28;20021;-64
2022/01/23 15:16:19;;;;;;;0.88;0.20;;;;;;;;;;5051655;28;20282;-63
2022/01/23 15:18:44;;;;;;;0.43;0.27;;;;;;;;;;5051764;28;20021;-64
2022/01/23 15:21:09;;;;;;;1.35;0.30;;;;;;;;;;5051672;28;20257;-63
2022/01/23 15:23:34;;;;;;;0.30;0.20;;;;;;;;;;5051606;28;20021;-64
2022/01/23 15:25:59;;;;;;;0.87;0.40;;;;;;;;;;5052315;28;20035;-63
2022/01/23 15:28:26;;;;;;;0.63;0.50;;;;;;;;;;5055166;28;20705;-64
2022/01/23 15:30:52;;;;;;;0.90;0.20;;;;;;;;;;5055372;28;20044;-64
2022/01/23 15:33:17;;;;;;;0.30;0.20;;;;;;;;;;5055187;28;20460;-63
2022/01/23 15:35:46;;;;;;;1.27;0.60;;;;;;;;;;5055310;28;20028;-64
2022/01/23 15:38:12;;;;;;;0.77;0.30;;;;;;;;;;5055183;28;20021;-63
2022/01/23 15:40:37;;;;;;;0.60;0.22;;;;;;;;;;5055147;28;20025;-64
2022/01/23 15:43:02;;;;;;;0.93;0.43;;;;;;;;;;5055140;28;20039;-63
2022/01/23 15:45:27;;;;;;;0.90;0.35;;;;;;;;;;5054832;28;20610;-64
2022/01/23 15:47:53;;;;;;;0.47;0.20;;;;;;;;;;5055052;28;20017;-64
2022/01/23 15:50:19;;;;;;;1.30;0.20;;;;;;;;;;5054919;28;20123;-63
2022/01/23 15:52:45;;;;;;;0.40;0.30;;;;;;;;;;5054894;28;20522;-64
2022/01/23 15:55:11;;;;;;;1.13;0.28;;;;;;;;;;5054819;28;20017;-63
2022/01/23 15:57:36;;;;;;;0.60;0.40;;;;;;;;;;5055036;28;20028;-64
2022/01/23 16:00:03;;;;;;;1.10;0.50;;;;;;;;;;5055198;28;20024;-63
2022/01/23 16:02:28;;;;;;;0.30;0.22;;;;;;;;;;5054617;28;20415;-64
2022/01/23 16:04:53;;;;;;;1.33;0.47;;;;;;;;;;5054476;28;20507;-63
2022/01/23 16:07:19;;;;;;;0.52;0.13;;;;;;;;;;5054477;28;20039;-63
2022/01/23 16:09:44;;;;;;;0.57;0.23;;;;;;;;;;5054619;28;20024;-64
2022/01/23 16:12:10;;;;;;;1.20;0.20;;;;;;;;;;5054582;28;20288;-63
2022/01/23 16:14:35;;;;;;;0.65;0.30;;;;;;;;;;5054400;28;20017;-64
2022/01/23 16:17:00;;;;;;;0.20;0.20;;;;;;;;;;5054638;28;20031;-63
2022/01/23 16:19:25;;;;;;;0.80;0.30;;;;;;;;;;5054207;28;20380;-63
2022/01/23 16:21:54;;;;;;;1.90;0.30;;;;;;;;;;5054824;28;20031;-63
2022/01/23 16:24:19;;;;;;;0.22;0.20;;;;;;;;;;5054279;28;20435;-64
2022/01/23 16:26:46;;;;;;;0.47;0.10;;;;;;;;;;5054292;28;20021;-64
2022/01/23 16:29:13;;;;;;;0.65;0.20;;;;;;;;;;5054139;28;20274;-63
2022/01/23 16:31:38;;;;;;;0.73;0.32;;;;;;;;;;5054204;28;20017;-64
2022/01/23 16:34:03;;;;;;;0.63;0.32;;;;;;;;;;5054544;28;20401;-63
2022/01/23 16:36:31;;;;;;;0.20;0.20;;;;;;;;;;5054005;28;20087;-63
2022/01/23 16:38:57;;;;;;;0.57;0.22;;;;;;;;;;5053494;28;20619;-63
2022/01/23 16:41:22;;;;;;;1.13;0.20;;;;;;;;;;5053833;28;20507;-64
2022/01/23 16:43:47;;;;;;;0.30;0.20;;;;;;;;;;5054058;28;20269;-63
2022/01/23 16:46:12;;;;;;;1.00;0.10;;;;;;;;;;5053856;28;20299;-63
2022/01/23 16:48:38;;;;;;;1.15;0.47;;;;;;;;;;5053774;28;20361;-64
2022/01/23 16:51:03;;;;;;;0.68;0.30;;;;;;;;;;5053916;28;20025;-63
2022/01/23 16:53:29;;;;;;;0.63;0.25;;;;;;;;;;5053317;28;20075;-63
2022/01/23 16:55:57;;;;;;;1.30;0.50;;;;;;;;;;5053832;28;20024;-63
2022/01/23 16:58:23;;;;;;;1.70;0.35;;;;;;;;;;5053855;28;20017;-63
2022/01/23 17:00:48;;;;;;;1.35;0.10;;;;;;;;;;5053743;28;20066;-64
2022/01/23 17:03:13;;;;;;;0.80;0.20;;;;;;;;;;5053490;28;20381;-63
2022/01/23 17:05:42;;;;;;;0.88;0.20;;;;;;;;;;5053420;28;20053;-63
2022/01/23 17:08:07;;;;;;;0.93;0.20;;;;;;;;;;5052104;28;20020;-63
2022/01/23 17:10:32;;;;;;;2.30;0.57;;;;;;;;;;5052171;28;20449;-64
2022/01/23 17:12:58;;;;;;;0.20;0.20;;;;;;;;;;5053768;28;20242;-63
2022/01/23 17:15:23;;;;;;;1.17;0.50;;;;;;;;;;5051908;28;20296;-64
2022/01/23 17:17:48;;;;;;;0.50;0.20;;;;;;;;;;5053431;28;20024;-63
2022/01/23 17:20:14;;;;;;;0.68;0.30;;;;;;;;;;5053244;28;20242;-64
2022/01/23 17:22:39;;;;;;;0.57;0.40;;;;;;;;;;5053256;28;20506;-64
2022/01/23 17:25:04;;;;;;;0.50;0.20;;;;;;;;;;5053587;28;20419;-63
2022/01/23 17:27:29;;;;;;;0.88;0.30;;;;;;;;;;5052944;28;20033;-63
2022/01/23 17:29:54;;;;;;;0.60;0.17;;;;;;;;;;5053207;28;20461;-63
2022/01/23 17:32:21;;;;;;;1.88;0.43;;;;;;;;;;5053061;28;20032;-63
2022/01/23 17:34:47;;;;;;;0.17;0.17;;;;;;;;;;5053077;28;20036;-63
2022/01/23 17:37:13;;;;;;;0.73;0.15;;;;;;;;;;5052859;28;20021;-64
2022/01/23 17:39:38;;;;;;;1.52;0.38;;;;;;;;;;5052840;28;20017;-63
2022/01/23 17:42:04;;;;;;;0.80;0.30;;;;;;;;;;5052959;28;20389;-63
2022/01/23 17:44:30;;;;;;;0.77;0.35;;;;;;;;;;5052733;28;20017;-64
2022/01/23 17:47:09;;;;;;;1.20;0.20;;;;;;;;;;5052880;28;20062;-63
2022/01/23 17:49:40;;;;;;;0.52;0.45;;;;;;;;;;5052385;28;20443;-64
2022/01/23 17:52:06;;;;;;;0.40;0.20;;;;;;;;;;5052799;28;20020;-63
2022/01/23 17:54:31;;;;;;;1.23;0.32;;;;;;;;;;5051919;28;20403;-64
2022/01/23 17:56:57;;;;;;;1.70;0.83;;;;;;;;;;5052706;28;20043;-63
2022/01/23 17:59:22;;;;;;;0.20;0.20;;;;;;;;;;5052452;28;20265;-63
2022/01/23 18:01:47;;;;;;;0.65;0.20;;;;;;;;;;5052719;28;20445;-64
2022/01/23 18:04:13;;;;;;;1.35;0.50;;;;;;;;;;5050707;28;20033;-63
2022/01/23 18:06:40;;;;;;;0.25;0.20;;;;;;;;;;5052416;28;20017;-64
2022/01/23 18:09:09;;;;;;;0.50;0.40;;;;;;;;;;5052425;28;20041;-63
2022/01/23 18:11:34;;;;;;;0.75;0.20;;;;;;;;;;5052386;28;20076;-63
2022/01/23 18:14:03;;;;;;;0.90;0.28;;;;;;;;;;5052488;28;20087;-63